< < Back
Terminal Aerodrome Forecast


Current Version              Previous Versions:   1  2  3  4  5  6  7  8  9  

Terminal Aerodrome Forecast

874
FTUS42 KGSP 292300
TAFAND
TAF
KAND 292339Z 3000/3024 26007KT P6SM FEW060
     FM301300 05006KT P6SM FEW060
     FM301800 24003KT P6SM SCT060
     FM302300 00000KT P6SM SCT250=

Latest METAR

548
SAUS70 KWBC 300400 RRB
MTRAND
METAR KAND 300356Z AUTO 04009KT 10SM CLR 22/13 A3001 RMK AO2 SLP153
T02170128


USA.gov is the U.S. government's official web portal to all federal, state and local government web resources and services.